createdAt,value
2022-11-19T00:01:22.269Z,13.80
2022-11-19T00:03:52.637Z,14.07
2022-11-19T00:06:22.676Z,13.60
2022-11-19T00:08:50.114Z,14.65
2022-11-19T00:11:40.391Z,13.80
2022-11-19T00:16:35.379Z,16.83
2022-11-19T00:19:02.325Z,14.97
2022-11-19T00:21:29.174Z,13.27
2022-11-19T00:23:56.381Z,12.50
2022-11-19T00:26:23.910Z,15.57
2022-11-19T00:28:50.777Z,15.10
2022-11-19T00:31:18.355Z,16.67
2022-11-19T00:33:46.271Z,15.03
2022-11-19T00:36:15.517Z,19.50
2022-11-19T00:38:43.407Z,13.93
2022-11-19T00:41:10.565Z,17.07
2022-11-19T00:43:52.461Z,13.10
2022-11-19T00:46:25.121Z,14.80
2022-11-19T00:48:53.923Z,13.87
2022-11-19T00:51:22.271Z,13.37
2022-11-19T00:53:49.152Z,19.03
2022-11-19T00:56:19.826Z,12.83
2022-11-19T00:58:48.096Z,13.83
2022-11-19T01:01:16.221Z,14.07
2022-11-19T01:03:45.760Z,12.50
2022-11-19T01:06:18.828Z,11.93
2022-11-19T01:08:47.621Z,13.50
2022-11-19T01:11:20.574Z,11.50
2022-11-19T01:13:47.422Z,14.27
2022-11-19T01:16:17.962Z,14.37
2022-11-19T01:18:47.010Z,13.83
2022-11-19T01:21:14.320Z,12.50
2022-11-19T01:23:42.253Z,14.23
2022-11-19T01:26:10.189Z,16.20
2022-11-19T01:28:38.233Z,12.97
2022-11-19T01:31:16.919Z,14.93
2022-11-19T01:33:44.238Z,13.53
2022-11-19T01:36:14.108Z,16.80
2022-11-19T01:38:41.110Z,15.52
2022-11-19T01:41:08.440Z,15.13
2022-11-19T01:43:50.332Z,15.90
2022-11-19T01:46:22.530Z,15.30
2022-11-19T01:49:01.084Z,14.17
2022-11-19T01:51:59.037Z,15.60
2022-11-19T01:54:41.373Z,14.60
2022-11-19T01:57:11.564Z,15.00
2022-11-19T02:02:06.111Z,14.77
2022-11-19T02:04:34.306Z,15.10
2022-11-19T02:07:02.341Z,13.87
2022-11-19T02:09:29.788Z,15.83
2022-11-19T02:12:05.514Z,15.63
2022-11-19T02:14:41.324Z,15.27
2022-11-19T02:17:55.303Z,14.70
2022-11-19T02:20:56.470Z,16.43
2022-11-19T02:23:51.019Z,16.07
2022-11-19T02:27:03.151Z,16.57
2022-11-19T02:29:29.797Z,15.77
2022-11-19T02:32:26.138Z,15.03
2022-11-19T02:35:06.484Z,14.10
2022-11-19T02:37:43.557Z,14.43
2022-11-19T02:40:22.190Z,12.23
2022-11-19T02:42:48.977Z,13.23
2022-11-19T02:46:00.204Z,12.73
2022-11-19T02:48:50.047Z,13.47
2022-11-19T02:51:18.654Z,12.65
2022-11-19T02:53:48.318Z,12.70
2022-11-19T02:56:36.161Z,15.90
2022-11-19T02:59:22.820Z,17.30
2022-11-19T03:02:09.324Z,12.60
2022-11-19T03:04:36.123Z,12.70
2022-11-19T03:07:11.017Z,13.73
2022-11-19T03:09:46.283Z,15.73
2022-11-19T03:12:31.119Z,11.20
2022-11-19T03:15:22.828Z,11.63
2022-11-19T03:18:01.508Z,12.67
2022-11-19T03:20:36.924Z,13.13
2022-11-19T03:23:21.655Z,13.13
2022-11-19T03:25:58.837Z,12.33
2022-11-19T03:28:33.048Z,12.17
2022-11-19T03:31:01.132Z,12.57
2022-11-19T03:33:41.083Z,13.63
2022-11-19T03:36:12.558Z,13.70
2022-11-19T03:38:44.571Z,14.20
2022-11-19T03:41:15.268Z,16.20
2022-11-19T03:43:46.604Z,16.93
2022-11-19T03:46:18.482Z,16.30
2022-11-19T03:48:48.314Z,14.60
2022-11-19T03:51:25.970Z,14.55
2022-11-19T03:53:53.391Z,16.57
2022-11-19T03:56:24.027Z,16.50
2022-11-19T03:58:53.699Z,13.73
2022-11-19T04:01:20.997Z,13.55
2022-11-19T04:04:07.931Z,13.20
2022-11-19T04:06:34.692Z,11.80
2022-11-19T04:09:01.408Z,14.60
2022-11-19T04:13:53.767Z,12.63
2022-11-19T04:16:20.459Z,12.83
2022-11-19T04:18:47.308Z,11.47
2022-11-19T04:21:14.018Z,11.93
2022-11-19T04:23:40.698Z,11.77
2022-11-19T04:26:07.460Z,13.17
2022-11-19T04:28:34.176Z,12.17
2022-11-19T04:31:00.899Z,15.23
2022-11-19T04:33:27.693Z,11.87
2022-11-19T04:35:54.404Z,11.30
2022-11-19T04:38:21.129Z,11.00
2022-11-19T04:40:47.920Z,16.00
2022-11-19T04:43:14.680Z,11.20
2022-11-19T04:45:41.365Z,13.33
2022-11-19T04:48:08.156Z,12.40
2022-11-19T04:50:34.967Z,12.30
2022-11-19T04:53:01.742Z,13.47
2022-11-19T04:55:28.624Z,16.53
2022-11-19T04:57:55.409Z,12.57
2022-11-19T05:00:23.211Z,16.37
2022-11-19T05:02:49.929Z,12.47
2022-11-19T05:05:16.870Z,11.13
2022-11-19T05:07:43.555Z,11.97
2022-11-19T05:10:10.615Z,11.73
2022-11-19T05:12:37.404Z,12.10
2022-11-19T05:15:04.641Z,15.00
2022-11-19T05:17:31.344Z,11.80
2022-11-19T05:20:00.148Z,19.37
2022-11-19T05:22:26.967Z,11.90
2022-11-19T05:24:53.666Z,12.40
2022-11-19T05:27:20.403Z,14.07
2022-11-19T05:29:47.083Z,15.60
2022-11-19T05:32:13.834Z,14.30
2022-11-19T05:34:40.687Z,15.70
2022-11-19T05:37:07.391Z,17.70
2022-11-19T05:39:34.244Z,15.70
2022-11-19T05:42:01.335Z,20.53
2022-11-19T05:44:28.017Z,16.83
2022-11-19T05:46:57.844Z,16.43
2022-11-19T05:49:24.646Z,16.35
2022-11-19T05:51:51.356Z,16.23
2022-11-19T05:54:18.229Z,15.67
2022-11-19T05:56:45.103Z,19.80
2022-11-19T05:59:11.847Z,21.80
2022-11-19T06:01:38.592Z,22.83
2022-11-19T06:04:05.448Z,17.03
2022-11-19T06:06:32.144Z,12.67
2022-11-19T06:08:58.879Z,15.10
2022-11-19T06:11:44.111Z,17.67
2022-11-19T06:14:10.802Z,19.90
2022-11-19T06:16:37.530Z,17.60
2022-11-19T06:19:04.324Z,19.33
2022-11-19T06:21:31.282Z,15.90
2022-11-19T06:23:58.025Z,13.30
2022-11-19T06:26:26.697Z,13.60
2022-11-19T06:28:53.833Z,13.27
2022-11-19T06:31:20.969Z,10.53
2022-11-19T06:33:48.481Z,12.30
2022-11-19T06:36:15.486Z,12.17
2022-11-19T06:38:42.217Z,12.37
2022-11-19T06:41:09.047Z,13.53
2022-11-19T06:43:35.819Z,12.70
2022-11-19T06:46:02.508Z,12.67
2022-11-19T06:48:29.375Z,14.33
2022-11-19T06:50:56.778Z,12.77
2022-11-19T06:53:23.550Z,13.07
2022-11-19T06:55:59.351Z,15.10
2022-11-19T06:58:26.374Z,12.93
2022-11-19T07:00:53.079Z,14.90
2022-11-19T07:03:20.365Z,9.77
2022-11-19T07:05:48.386Z,10.57
2022-11-19T07:08:16.168Z,9.70
2022-11-19T07:10:43.824Z,10.43
2022-11-19T07:13:10.589Z,11.07
2022-11-19T07:15:37.804Z,11.07
2022-11-19T07:18:04.797Z,12.80
2022-11-19T07:20:31.815Z,7.93
2022-11-19T07:22:59.551Z,12.83
2022-11-19T07:25:27.394Z,11.43
2022-11-19T07:27:54.444Z,13.83
2022-11-19T07:30:21.130Z,15.10
2022-11-19T07:32:47.921Z,13.23
2022-11-19T07:35:14.712Z,10.43
2022-11-19T07:37:41.454Z,13.27
2022-11-19T07:40:11.370Z,13.97
2022-11-19T07:42:53.047Z,18.90
2022-11-19T07:45:22.381Z,14.43
2022-11-19T07:47:49.118Z,15.47
2022-11-19T07:50:17.299Z,15.07
2022-11-19T07:52:44.278Z,16.17
2022-11-19T07:55:11.182Z,13.53
2022-11-19T07:57:38.171Z,14.43
2022-11-19T08:00:06.612Z,15.73
2022-11-19T08:02:33.460Z,15.20
2022-11-19T08:05:00.168Z,11.13
2022-11-19T08:07:27.133Z,10.80
2022-11-19T08:09:53.905Z,15.20
2022-11-19T08:12:20.620Z,10.33
2022-11-19T08:14:47.459Z,13.10
2022-11-19T08:17:32.584Z,11.73
2022-11-19T08:19:59.520Z,10.60
2022-11-19T08:22:26.294Z,9.70
2022-11-19T08:24:52.997Z,10.23
2022-11-19T08:27:19.854Z,10.97
2022-11-19T08:29:46.698Z,10.93
2022-11-19T08:32:13.519Z,14.07
2022-11-19T08:34:40.324Z,14.37
2022-11-19T08:37:07.256Z,11.50
2022-11-19T08:39:34.026Z,12.27
2022-11-19T08:42:19.652Z,12.27
2022-11-19T08:44:46.550Z,11.80
2022-11-19T08:47:13.284Z,11.47
2022-11-19T08:49:40.112Z,11.73
2022-11-19T08:52:06.906Z,12.37
2022-11-19T08:54:33.625Z,11.50
2022-11-19T08:57:00.466Z,12.53
2022-11-19T08:59:27.188Z,13.30
2022-11-19T09:01:53.888Z,13.53
2022-11-19T09:04:20.953Z,12.47
2022-11-19T09:06:47.910Z,13.27
2022-11-19T09:09:14.591Z,13.77
2022-11-19T09:11:43.060Z,10.70
2022-11-19T09:14:10.500Z,9.93
2022-11-19T09:16:37.234Z,10.23
2022-11-19T09:19:04.149Z,11.37
2022-11-19T09:21:30.888Z,11.20
2022-11-19T09:23:57.592Z,11.90
2022-11-19T09:26:24.438Z,11.43
2022-11-19T09:28:51.193Z,12.03
2022-11-19T09:31:20.012Z,12.63
2022-11-19T09:33:49.271Z,10.73
2022-11-19T09:36:17.774Z,11.87
2022-11-19T09:38:44.630Z,12.40
2022-11-19T09:41:29.301Z,11.50
2022-11-19T09:44:26.775Z,14.53
2022-11-19T09:47:02.897Z,13.38
2022-11-19T09:50:00.722Z,10.52
2022-11-19T09:52:33.974Z,11.10
2022-11-19T09:55:02.021Z,11.68
2022-11-19T09:57:39.685Z,10.10
2022-11-19T10:00:08.576Z,12.90
2022-11-19T10:02:35.431Z,10.40
2022-11-19T10:05:03.388Z,10.95
2022-11-19T10:07:44.917Z,10.68
2022-11-19T10:10:20.898Z,9.15
2022-11-19T10:13:15.441Z,8.68
2022-11-19T10:15:48.349Z,9.80
2022-11-19T10:18:21.163Z,11.23
2022-11-19T10:21:00.578Z,9.75
2022-11-19T10:23:42.803Z,12.38
2022-11-19T10:26:16.271Z,9.88
2022-11-19T10:28:51.785Z,9.07
2022-11-19T10:31:36.940Z,8.63
2022-11-19T10:34:28.443Z,9.35
2022-11-19T10:37:00.329Z,8.40
2022-11-19T10:39:37.302Z,9.32
2022-11-19T10:42:28.915Z,11.50
2022-11-19T10:45:13.676Z,10.77
2022-11-19T10:47:53.337Z,10.32
2022-11-19T10:50:22.967Z,10.38
2022-11-19T10:53:17.525Z,10.10
2022-11-19T10:56:00.638Z,11.82
2022-11-19T10:58:33.960Z,16.42
2022-11-19T11:01:03.705Z,8.80
2022-11-19T11:03:52.505Z,10.43
2022-11-19T11:06:19.197Z,10.43
2022-11-19T11:08:54.341Z,9.75
2022-11-19T11:11:53.048Z,10.15
2022-11-19T11:14:41.529Z,8.90
2022-11-19T11:17:29.472Z,9.23
2022-11-19T11:20:11.031Z,9.05
2022-11-19T11:22:38.654Z,9.38
2022-11-19T11:25:20.810Z,10.25
2022-11-19T11:28:04.617Z,9.80
2022-11-19T11:30:31.507Z,10.32
2022-11-19T11:32:58.267Z,11.00
2022-11-19T11:35:34.175Z,9.30
2022-11-19T11:38:02.503Z,11.02
2022-11-19T11:40:30.357Z,9.68
2022-11-19T11:42:57.877Z,9.80
2022-11-19T11:45:32.445Z,11.15
2022-11-19T11:48:06.235Z,12.38
2022-11-19T11:50:33.395Z,10.68
2022-11-19T11:53:09.415Z,9.57
2022-11-19T11:55:38.625Z,10.25
2022-11-19T11:58:24.350Z,10.52
2022-11-19T12:00:55.443Z,10.68
2022-11-19T12:03:22.616Z,9.82
2022-11-19T12:06:12.081Z,10.75
2022-11-19T12:08:53.983Z,13.05
2022-11-19T12:11:58.297Z,10.57
2022-11-19T12:14:37.130Z,10.30
2022-11-19T12:17:31.922Z,9.95
2022-11-19T12:20:21.572Z,10.35
2022-11-19T12:23:13.818Z,9.60
2022-11-19T12:25:47.884Z,10.43
2022-11-19T12:29:09.027Z,9.10
2022-11-19T12:31:56.481Z,9.50
2022-11-19T12:34:29.013Z,13.43
2022-11-19T12:37:37.513Z,10.85
2022-11-19T12:40:54.850Z,10.32
2022-11-19T12:43:29.329Z,9.25
2022-11-19T12:46:15.415Z,11.65
2022-11-19T12:49:11.356Z,10.65
2022-11-19T12:51:52.402Z,9.95
2022-11-19T12:54:46.898Z,10.00
2022-11-19T12:57:52.513Z,11.30
2022-11-19T13:00:21.848Z,10.27
2022-11-19T13:03:12.431Z,10.05
2022-11-19T13:05:47.905Z,9.90
2022-11-19T13:08:31.407Z,10.55
2022-11-19T13:10:58.064Z,9.85
2022-11-19T13:13:29.472Z,13.00
2022-11-19T13:15:59.102Z,9.82
2022-11-19T13:18:31.139Z,14.20
2022-11-19T13:21:07.527Z,11.13
2022-11-19T13:23:42.196Z,9.60
2022-11-19T13:26:17.714Z,10.00
2022-11-19T13:29:08.710Z,11.82
2022-11-19T13:32:11.097Z,10.00
2022-11-19T13:34:47.353Z,9.70
2022-11-19T13:37:28.098Z,10.23
2022-11-19T13:40:03.092Z,9.27
2022-11-19T13:43:04.169Z,10.38
2022-11-19T13:45:39.465Z,16.95
2022-11-19T13:48:20.174Z,10.75
2022-11-19T13:50:50.530Z,19.60
2022-11-19T13:53:26.896Z,10.73
2022-11-19T13:55:58.333Z,11.48
2022-11-19T13:58:37.954Z,12.10
2022-11-19T14:01:08.549Z,8.98
2022-11-19T14:03:53.623Z,14.48
2022-11-19T14:06:42.101Z,13.60
2022-11-19T14:09:30.524Z,9.60
2022-11-19T14:12:09.055Z,11.20
2022-11-19T14:15:09.192Z,12.32
2022-11-19T14:20:58.375Z,13.88
2022-11-19T14:24:02.568Z,10.10
2022-11-19T14:26:41.305Z,10.48
2022-11-19T14:29:26.463Z,11.60
2022-11-19T14:32:08.252Z,10.75
2022-11-19T14:34:38.795Z,10.95
2022-11-19T14:37:20.083Z,10.48
2022-11-19T14:39:59.157Z,12.95
2022-11-19T14:42:26.005Z,16.88
2022-11-19T14:45:02.918Z,9.38
2022-11-19T14:47:43.802Z,9.85
2022-11-19T14:50:28.292Z,12.20
2022-11-19T14:52:58.076Z,12.80
2022-11-19T14:55:27.988Z,13.38
2022-11-19T14:57:56.773Z,11.27
2022-11-19T15:00:27.433Z,11.60
2022-11-19T15:02:56.662Z,12.30
2022-11-19T15:05:27.175Z,13.73
2022-11-19T15:08:46.097Z,9.53
2022-11-19T15:11:14.648Z,10.18
2022-11-19T15:13:49.141Z,10.17
2022-11-19T15:16:27.600Z,10.00
2022-11-19T15:19:03.000Z,11.17
2022-11-19T15:21:45.153Z,16.75
2022-11-19T15:24:30.401Z,12.32
2022-11-19T15:27:26.011Z,15.47
2022-11-19T15:30:19.863Z,15.77
2022-11-19T15:33:17.085Z,12.97
2022-11-19T15:36:20.789Z,14.53
2022-11-19T15:38:57.807Z,17.33
2022-11-19T15:41:26.127Z,14.40
2022-11-19T15:43:59.881Z,16.43
2022-11-19T15:46:32.615Z,14.47
2022-11-19T15:49:39.690Z,17.52
2022-11-19T15:52:13.020Z,11.60
2022-11-19T15:54:43.802Z,12.80
2022-11-19T15:57:26.447Z,15.10
2022-11-19T16:00:00.058Z,13.00
2022-11-19T16:02:32.732Z,13.23
2022-11-19T16:04:59.721Z,11.93
2022-11-19T16:07:29.754Z,13.33
2022-11-19T16:09:58.554Z,11.93
2022-11-19T16:12:46.134Z,14.67
2022-11-19T16:15:43.847Z,13.63
2022-11-19T16:18:19.003Z,11.13
2022-11-19T16:20:51.640Z,11.75
2022-11-19T16:23:23.115Z,11.37
2022-11-19T16:25:50.447Z,15.40
2022-11-19T16:28:24.629Z,10.10
2022-11-19T16:31:13.223Z,13.43
2022-11-19T16:33:40.532Z,11.63
2022-11-19T16:36:18.271Z,10.95
2022-11-19T16:39:05.562Z,10.35
2022-11-19T16:41:52.343Z,12.77
2022-11-19T16:44:22.027Z,11.80
2022-11-19T16:46:49.608Z,11.45
2022-11-19T16:49:49.519Z,12.93
2022-11-19T16:52:35.628Z,15.10
2022-11-19T16:55:04.961Z,12.75
2022-11-19T16:57:32.575Z,14.55
2022-11-19T17:00:02.113Z,13.83
2022-11-19T17:02:36.349Z,13.88
2022-11-19T17:05:16.946Z,13.43
2022-11-19T17:08:05.006Z,12.83
2022-11-19T17:10:32.226Z,20.33
2022-11-19T17:13:13.873Z,18.03
2022-11-19T17:15:44.595Z,22.13
2022-11-19T17:18:20.393Z,16.13
2022-11-19T17:21:00.662Z,13.37
2022-11-19T17:25:57.420Z,19.03
2022-11-19T17:28:41.099Z,22.17
2022-11-19T17:31:20.677Z,17.30
2022-11-19T17:33:51.668Z,15.77
2022-11-19T17:36:18.738Z,22.13
2022-11-19T17:38:45.631Z,22.07
2022-11-19T17:41:16.031Z,18.37
2022-11-19T17:44:01.456Z,19.53
2022-11-19T17:46:30.418Z,18.57
2022-11-19T17:48:57.463Z,19.17
2022-11-19T17:51:26.135Z,17.00
2022-11-19T17:53:53.462Z,16.90
2022-11-19T17:56:28.900Z,15.45
2022-11-19T17:58:56.251Z,18.27
2022-11-19T18:01:23.079Z,16.25
2022-11-19T18:03:50.045Z,16.80
2022-11-19T18:06:17.961Z,18.07
2022-11-19T18:08:45.394Z,16.40
2022-11-19T18:11:16.195Z,15.37
2022-11-19T18:13:44.327Z,17.73
2022-11-19T18:16:25.454Z,19.87
2022-11-19T18:18:52.468Z,16.47
2022-11-19T18:21:22.066Z,12.60
2022-11-19T18:23:50.997Z,12.07
2022-11-19T18:26:20.466Z,13.40
2022-11-19T18:28:49.056Z,14.30
2022-11-19T18:31:27.853Z,10.97
2022-11-19T18:33:56.089Z,14.20
2022-11-19T18:36:25.176Z,12.17
2022-11-19T18:38:53.000Z,19.58
2022-11-19T18:41:19.840Z,13.20
2022-11-19T18:44:05.476Z,14.53
2022-11-19T18:46:32.319Z,13.17
2022-11-19T18:48:59.885Z,17.83
2022-11-19T18:51:29.339Z,15.37
2022-11-19T18:53:56.044Z,22.85
2022-11-19T18:56:23.028Z,15.30
2022-11-19T18:58:49.844Z,17.13
2022-11-19T19:01:17.391Z,18.83
2022-11-19T19:03:44.645Z,19.17
2022-11-19T19:06:11.927Z,22.43
2022-11-19T19:08:38.688Z,22.00
2022-11-19T19:11:26.109Z,21.20
2022-11-19T19:13:53.108Z,25.50
2022-11-19T19:16:19.985Z,19.73
2022-11-19T19:18:47.129Z,28.20
2022-11-19T19:21:15.663Z,24.43
2022-11-19T19:23:42.841Z,15.20
2022-11-19T19:26:11.494Z,15.90
2022-11-19T19:28:38.865Z,16.53
2022-11-19T19:31:06.362Z,13.70
2022-11-19T19:33:33.606Z,16.70
2022-11-19T19:36:03.442Z,12.33
2022-11-19T19:38:30.234Z,18.05
2022-11-19T19:41:07.804Z,22.00
2022-11-19T19:43:34.645Z,18.00
2022-11-19T19:46:05.990Z,13.37
2022-11-19T19:48:32.831Z,17.30
2022-11-19T19:50:59.513Z,21.77
2022-11-19T19:53:26.292Z,20.50
2022-11-19T19:56:01.015Z,21.93
2022-11-19T19:58:28.300Z,18.97
2022-11-19T20:00:55.112Z,21.90
2022-11-19T20:03:25.809Z,19.23
2022-11-19T20:05:52.556Z,21.87
2022-11-19T20:08:19.273Z,21.83
2022-11-19T20:10:45.990Z,22.07
2022-11-19T20:13:27.616Z,26.03
2022-11-19T20:15:58.260Z,16.83
2022-11-19T20:18:25.549Z,21.27
2022-11-19T20:20:52.397Z,25.27
2022-11-19T20:23:19.308Z,32.13
2022-11-19T20:25:46.021Z,27.80
2022-11-19T20:28:12.820Z,32.33
2022-11-19T20:30:39.678Z,39.13
2022-11-19T20:33:06.394Z,32.70
2022-11-19T20:35:33.169Z,41.87
2022-11-19T20:38:03.435Z,19.67
2022-11-19T20:40:30.521Z,27.90
2022-11-19T20:43:16.060Z,30.87
2022-11-19T20:45:42.739Z,28.13
2022-11-19T20:48:09.490Z,28.07
2022-11-19T20:50:36.322Z,32.13
2022-11-19T20:53:03.165Z,33.03
2022-11-19T20:55:29.860Z,31.30
2022-11-19T20:57:56.725Z,18.80
2022-11-19T21:00:23.642Z,39.17
2022-11-19T21:02:50.348Z,33.80
2022-11-19T21:05:17.160Z,18.00
2022-11-19T21:07:43.929Z,24.47
2022-11-19T21:10:10.692Z,23.00
2022-11-19T21:12:57.411Z,28.73
2022-11-19T21:15:24.094Z,21.57
2022-11-19T21:17:50.784Z,21.47
2022-11-19T21:20:17.631Z,23.17
2022-11-19T21:22:48.105Z,37.60
2022-11-19T21:25:15.014Z,24.57
2022-11-19T21:27:42.083Z,22.43
2022-11-19T21:30:11.218Z,17.97
2022-11-19T21:32:38.411Z,16.27
2022-11-19T21:35:05.658Z,19.17
2022-11-19T21:37:32.422Z,32.10
2022-11-19T21:39:59.211Z,20.27
2022-11-19T21:42:25.983Z,22.40
2022-11-19T21:44:52.685Z,40.70
2022-11-19T21:47:19.380Z,52.80
2022-11-19T21:49:46.793Z,20.53
2022-11-19T21:52:13.498Z,39.40
2022-11-19T21:54:40.243Z,29.13
2022-11-19T21:57:06.984Z,51.97
2022-11-19T21:59:33.718Z,37.77
2022-11-19T22:02:00.517Z,30.73
2022-11-19T22:04:27.337Z,33.53
2022-11-19T22:06:54.043Z,17.83
2022-11-19T22:09:20.993Z,21.17
2022-11-19T22:11:47.916Z,32.77
2022-11-19T22:14:14.648Z,15.50
2022-11-19T22:16:41.419Z,36.47
2022-11-19T22:19:08.524Z,28.50
2022-11-19T22:21:35.923Z,28.47
2022-11-19T22:24:03.118Z,42.47
2022-11-19T22:26:30.600Z,44.80
2022-11-19T22:28:57.347Z,44.50
2022-11-19T22:31:25.446Z,55.47
2022-11-19T22:33:53.852Z,29.30
2022-11-19T22:36:22.443Z,18.87
2022-11-19T22:38:50.981Z,41.70
2022-11-19T22:41:19.923Z,44.37
2022-11-19T22:43:47.038Z,47.53
2022-11-19T22:46:14.581Z,34.97
2022-11-19T22:48:41.643Z,41.80
2022-11-19T22:51:12.859Z,58.83
2022-11-19T22:53:39.998Z,43.43
2022-11-19T22:56:10.056Z,53.50
2022-11-19T22:58:38.192Z,43.50
2022-11-19T23:01:07.040Z,37.07
2022-11-19T23:03:34.109Z,59.87
2022-11-19T23:06:00.805Z,61.33
2022-11-19T23:08:27.735Z,66.30
2022-11-19T23:11:02.665Z,58.53
2022-11-19T23:13:32.292Z,59.23
2022-11-19T23:16:25.092Z,58.58
2022-11-19T23:18:53.241Z,48.53
2022-11-19T23:21:23.001Z,65.13
2022-11-19T23:23:50.306Z,38.22
2022-11-19T23:26:19.966Z,43.90
2022-11-19T23:28:46.739Z,53.15
2022-11-19T23:31:19.198Z,55.03
2022-11-19T23:33:47.207Z,48.83
2022-11-19T23:36:16.600Z,46.93
2022-11-19T23:38:45.910Z,50.25
2022-11-19T23:41:14.590Z,22.20
2022-11-19T23:43:41.962Z,52.63
2022-11-19T23:46:11.545Z,39.23
2022-11-19T23:48:39.787Z,53.10
2022-11-19T23:51:18.178Z,39.83
2022-11-19T23:53:47.205Z,40.67
2022-11-19T23:56:15.723Z,32.27
2022-11-19T23:58:42.727Z,35.70
